Time;durP1;ratioP1;P1;durP2;ratioP2;P2;SDS_P1;SDS_P2;PMS_P1;PMS_P2;Temp;Humidity;BMP_temperature;BMP_pressure;BME280_temperature;BME280_humidity;BME280_pressure;Samples;Min_cycle;Max_cycle;Signal;HPM_P1;HPM_P2
2022/08/28 00:00:25;;;;;;;6.70;2.10;;;16.80;99.90;;;;;;3059768;19;20370;-73
2022/08/28 00:01:29;;;;;;;8.57;2.25;;;16.60;99.90;;;;;;3058861;19;20014;-73
2022/08/28 00:02:32;;;;;;;10.00;2.38;;;17.10;99.90;;;;;;3059165;19;20010;-73
2022/08/28 00:03:37;;;;;;;6.53;2.15;;;16.70;99.90;;;;;;3059832;19;20003;-74
2022/08/28 00:04:38;;;;;;;6.63;2.22;;;16.80;99.90;;;;;;3059558;19;20034;-74
2022/08/28 00:05:43;;;;;;;8.57;2.78;;;16.90;99.90;;;;;;3059797;19;20018;-74
2022/08/28 00:06:45;;;;;;;11.27;2.67;;;16.70;99.90;;;;;;3059584;19;20511;-74
2022/08/28 00:07:49;;;;;;;11.30;2.53;;;16.70;99.90;;;;;;3059244;19;20069;-73
2022/08/28 00:08:50;;;;;;;11.77;2.45;;;16.70;99.90;;;;;;3059613;19;20018;-73
2022/08/28 00:09:56;;;;;;;11.50;2.70;;;16.70;99.90;;;;;;3059577;19;20359;-73
2022/08/28 00:10:58;;;;;;;8.10;2.00;;;16.80;99.90;;;;;;3059755;19;20011;-73
2022/08/28 00:12:01;;;;;;;9.95;2.40;;;16.60;99.90;;;;;;3059728;19;20028;-73
2022/08/28 00:13:03;;;;;;;7.63;2.15;;;16.60;99.90;;;;;;3059597;19;20017;-75
2022/08/28 00:14:08;;;;;;;12.40;2.47;;;16.60;99.90;;;;;;3059838;19;20017;-74
2022/08/28 00:15:13;;;;;;;8.00;2.40;;;15.80;99.90;;;;;;3059374;19;20615;-73
2022/08/28 00:16:18;;;;;;;11.25;2.15;;;16.60;99.90;;;;;;3059510;19;20006;-73
2022/08/28 00:17:19;;;;;;;11.65;2.67;;;16.60;99.90;;;;;;3058928;19;20022;-73
2022/08/28 00:18:23;;;;;;;6.28;2.40;;;16.70;99.90;;;;;;3059943;19;20031;-73
2022/08/28 00:19:25;;;;;;;8.02;2.30;;;16.60;99.90;;;;;;3058859;19;20011;-73
2022/08/28 00:20:29;;;;;;;;;;;16.70;99.90;;;;;;3060007;19;20376;-74
2022/08/28 00:21:32;;;;;;;11.98;2.42;;;16.70;99.90;;;;;;3059251;19;19919;-73
2022/08/28 00:22:37;;;;;;;9.57;2.63;;;16.60;99.90;;;;;;3059427;19;20011;-73
2022/08/28 00:23:38;;;;;;;7.53;2.45;;;16.60;99.90;;;;;;3059473;19;20006;-73
2022/08/28 00:24:43;;;;;;;9.43;2.83;;;17.40;99.90;;;;;;3059405;19;20018;-73
2022/08/28 00:25:47;;;;;;;8.70;2.53;;;16.70;99.90;;;;;;3059295;19;20017;-73
2022/08/28 00:28:09;;;;;;;10.00;2.67;;;16.40;99.90;;;;;;3058650;19;20014;-73
2022/08/28 00:29:11;;;;;;;10.13;2.33;;;16.40;99.90;;;;;;3059144;19;20018;-74
2022/08/28 00:30:12;;;;;;;8.60;2.67;;;16.70;99.90;;;;;;3059679;19;20368;-73
2022/08/28 00:31:16;;;;;;;7.93;2.45;;;16.60;99.90;;;;;;3059370;19;20007;-73
2022/08/28 00:32:21;;;;;;;8.05;2.35;;;16.60;99.90;;;;;;3059381;19;20010;-73
2022/08/28 00:33:26;;;;;;;8.63;2.30;;;16.70;99.90;;;;;;3059025;19;20391;-73
2022/08/28 00:34:28;;;;;;;8.88;2.58;;;16.80;99.90;;;;;;3059340;19;20372;-73
2022/08/28 00:35:32;;;;;;;10.45;3.00;;;16.40;99.90;;;;;;3059183;19;20021;-73
2022/08/28 00:36:34;;;;;;;9.73;2.88;;;16.60;99.90;;;;;;3059203;19;20342;-73
2022/08/28 00:37:38;;;;;;;9.65;2.47;;;16.50;99.90;;;;;;3059199;19;20043;-73
2022/08/28 00:38:40;;;;;;;7.72;2.50;;;16.50;99.90;;;;;;3059092;19;20036;-73
2022/08/28 00:39:44;;;;;;;9.85;2.45;;;16.70;99.90;;;;;;3059194;19;20011;-73
2022/08/28 00:40:50;;;;;;;12.82;3.00;;;16.60;99.90;;;;;;3059039;19;20023;-73
2022/08/28 00:41:54;;;;;;;9.63;2.63;;;16.50;99.90;;;;;;3059113;19;20011;-73
2022/08/28 00:42:56;;;;;;;9.18;2.60;;;16.70;99.90;;;;;;3059164;19;20010;-74
2022/08/28 00:44:11;;;;;;;11.75;3.28;;;16.40;99.90;;;;;;3058865;19;20024;-74
2022/08/28 00:45:14;;;;;;;10.73;2.92;;;16.60;99.90;;;;;;3059013;19;20390;-74
2022/08/28 00:46:21;;;;;;;6.82;2.42;;;16.40;99.90;;;;;;3058855;19;20368;-73
2022/08/28 00:47:25;;;;;;;14.73;2.80;;;16.50;99.90;;;;;;3059057;19;20002;-73
2022/08/28 00:48:29;;;;;;;10.23;2.50;;;16.70;99.90;;;;;;3058304;19;20017;-73
2022/08/28 00:49:34;;;;;;;9.00;2.70;;;16.70;99.90;;;;;;3058489;19;20010;-73
2022/08/28 00:52:14;;;;;;;12.68;2.50;;;16.60;99.90;;;;;;3058865;19;20013;-73
2022/08/28 00:53:15;;;;;;;6.05;2.40;;;16.60;99.90;;;;;;3058906;19;20018;-73
2022/08/28 00:54:18;;;;;;;11.32;3.10;;;16.70;99.90;;;;;;3058862;19;20006;-73
2022/08/28 00:55:24;;;;;;;15.32;2.80;;;16.60;99.90;;;;;;3059171;19;20007;-72
2022/08/28 00:56:31;;;;;;;8.00;2.30;;;16.60;99.90;;;;;;3058913;19;20025;-73
2022/08/28 00:57:39;;;;;;;8.60;2.53;;;16.60;99.90;;;;;;3058176;19;20031;-73
2022/08/28 00:58:43;;;;;;;10.20;2.67;;;16.40;99.90;;;;;;3058085;19;20015;-74
2022/08/28 00:59:48;;;;;;;7.10;2.70;;;16.60;99.90;;;;;;3059046;19;20002;-73
2022/08/28 01:00:49;;;;;;;12.02;2.50;;;15.90;99.90;;;;;;3058627;19;20026;-73
2022/08/28 01:01:59;;;;;;;9.73;2.40;;;16.50;99.90;;;;;;3058919;19;20007;-73
2022/08/28 01:03:02;;;;;;;8.13;2.60;;;16.40;99.90;;;;;;3058821;19;20369;-73
2022/08/28 01:04:07;;;;;;;7.20;2.25;;;16.50;99.90;;;;;;3058834;19;20014;-73
2022/08/28 01:05:09;;;;;;;9.15;2.50;;;16.50;99.90;;;;;;3058750;19;20035;-74
2022/08/28 01:06:16;;;;;;;11.27;2.75;;;16.40;99.90;;;;;;3058699;19;20015;-74
2022/08/28 01:07:18;;;;;;;8.10;2.63;;;16.50;99.90;;;;;;3058689;19;20377;-74
2022/08/28 01:08:22;;;;;;;5.85;2.22;;;16.40;99.90;;;;;;3058011;19;20018;-73
2022/08/28 01:09:28;;;;;;;9.00;2.70;;;16.40;99.90;;;;;;3058868;19;20026;-73
2022/08/28 01:10:34;;;;;;;10.68;2.72;;;16.30;99.90;;;;;;3058713;19;20066;-73
2022/08/28 01:11:40;;;;;;;11.48;2.55;;;16.30;99.90;;;;;;3058778;19;20003;-73
2022/08/28 01:12:44;;;;;;;6.95;2.33;;;16.50;99.90;;;;;;3058710;19;20011;-73
2022/08/28 01:13:47;;;;;;;10.50;2.40;;;16.30;99.90;;;;;;3058531;19;20031;-73
2022/08/28 01:14:54;;;;;;;8.68;2.63;;;16.40;99.90;;;;;;3058577;19;20476;-73
2022/08/28 01:15:57;;;;;;;8.52;2.72;;;16.50;99.90;;;;;;3058589;19;20022;-73
2022/08/28 01:17:01;;;;;;;7.07;2.25;;;16.30;99.90;;;;;;3058489;19;20036;-73
2022/08/28 01:18:06;;;;;;;7.78;2.97;;;16.40;99.90;;;;;;3057722;19;20026;-73
2022/08/28 01:19:18;;;;;;;6.90;2.38;;;16.30;99.90;;;;;;3058381;19;20002;-73
2022/08/28 01:20:26;;;;;;;9.35;2.70;;;16.40;99.90;;;;;;3058384;19;20452;-73
2022/08/28 01:21:38;;;;;;;10.93;2.72;;;16.30;99.90;;;;;;3057696;19;20019;-73
2022/08/28 01:22:48;;;;;;;10.55;2.20;;;16.40;99.90;;;;;;3058583;19;20055;-73
2022/08/28 01:23:56;;;;;;;9.98;2.50;;;16.10;99.90;;;;;;3058363;19;20037;-73
2022/08/28 01:25:03;;;;;;;8.13;2.45;;;16.20;99.90;;;;;;3058639;19;20010;-74
2022/08/28 01:26:05;;;;;;;7.05;2.50;;;16.30;99.90;;;;;;3058299;19;20015;-73
2022/08/28 01:27:09;;;;;;;8.63;2.22;;;16.30;99.90;;;;;;3058299;19;20019;-73
2022/08/28 01:28:13;;;;;;;9.98;2.60;;;16.20;99.90;;;;;;3057799;19;20342;-73
2022/08/28 01:29:17;;;;;;;8.65;2.40;;;16.20;99.90;;;;;;3058390;19;20010;-74
2022/08/28 01:30:21;;;;;;;8.85;2.65;;;16.20;99.90;;;;;;3058416;19;20006;-73
2022/08/28 01:31:26;;;;;;;8.70;2.40;;;16.20;99.90;;;;;;3058338;19;20015;-73
2022/08/28 01:32:32;;;;;;;8.07;2.38;;;16.20;99.90;;;;;;3058582;19;20006;-73
2022/08/28 01:33:36;;;;;;;7.18;2.17;;;16.30;99.90;;;;;;3058307;19;20003;-73
2022/08/28 01:34:37;;;;;;;6.75;2.65;;;16.20;99.90;;;;;;3058269;19;20015;-73
2022/08/28 01:35:46;;;;;;;11.30;2.90;;;16.10;99.90;;;;;;3058417;19;20040;-73
2022/08/28 01:36:48;;;;;;;6.40;2.35;;;16.20;99.90;;;;;;3058218;19;20014;-73
2022/08/28 01:37:52;;;;;;;8.38;2.70;;;16.40;99.90;;;;;;3058311;19;20006;-74
2022/08/28 01:39:00;;;;;;;9.75;3.00;;;16.30;99.90;;;;;;3058397;19;19998;-73
2022/08/28 01:40:05;;;;;;;9.88;2.60;;;16.30;99.90;;;;;;3058093;19;20365;-73
2022/08/28 01:41:07;;;;;;;10.70;2.42;;;16.00;99.90;;;;;;3058421;19;20020;-73
2022/08/28 01:42:12;;;;;;;11.75;2.60;;;16.30;99.90;;;;;;3059089;19;20014;-73
2022/08/28 01:43:16;;;;;;;8.30;2.40;;;16.10;99.90;;;;;;3058377;19;19998;-73
2022/08/28 01:44:23;;;;;;;8.85;2.63;;;16.20;99.90;;;;;;3058098;19;20022;-73
2022/08/28 01:45:26;;;;;;;8.43;2.40;;;16.30;99.90;;;;;;3058377;19;20106;-73
2022/08/28 01:46:30;;;;;;;8.52;2.60;;;16.30;99.90;;;;;;3058102;19;20014;-73
2022/08/28 01:47:34;;;;;;;9.77;2.70;;;16.10;99.90;;;;;;3058370;19;20027;-73
2022/08/28 01:48:38;;;;;;;9.80;2.72;;;16.10;99.90;;;;;;3056541;19;20369;-73
2022/08/28 01:49:42;;;;;;;8.40;2.42;;;16.10;99.90;;;;;;3057320;19;20003;-74
2022/08/28 01:50:44;;;;;;;8.15;2.38;;;16.10;99.90;;;;;;3058158;19;20010;-73
2022/08/28 01:51:48;;;;;;;8.85;2.60;;;16.00;99.90;;;;;;3058277;19;20368;-73
2022/08/28 01:52:50;;;;;;;6.63;2.50;;;16.20;99.90;;;;;;3057961;19;20010;-74
2022/08/28 01:53:54;;;;;;;7.93;2.40;;;16.10;99.90;;;;;;3058324;19;20370;-74
2022/08/28 01:54:58;;;;;;;9.32;2.53;;;16.00;99.90;;;;;;3058131;19;20011;-74
2022/08/28 01:56:03;;;;;;;11.40;2.83;;;16.20;99.90;;;;;;3058346;19;20014;-74
2022/08/28 01:57:07;;;;;;;7.72;2.70;;;16.10;99.90;;;;;;3058082;19;20115;-73
2022/08/28 01:58:09;;;;;;;9.13;2.60;;;17.30;99.90;;;;;;3058135;19;20026;-73
2022/08/28 01:59:13;;;;;;;;;;;16.10;99.90;;;;;;3058519;19;20006;-73
2022/08/28 02:00:16;;;;;;;12.13;3.00;;;16.20;99.90;;;;;;3058394;19;19915;-74
2022/08/28 02:01:23;;;;;;;9.32;2.50;;;16.20;99.90;;;;;;3058132;19;20014;-74
2022/08/28 02:02:24;;;;;;;10.02;2.47;;;16.10;99.90;;;;;;3058240;19;20078;-73
2022/08/28 02:03:28;;;;;;;7.40;2.30;;;16.10;99.90;;;;;;3057862;19;20026;-74
2022/08/28 02:04:29;;;;;;;7.43;2.50;;;16.00;99.90;;;;;;3058174;19;20515;-74
2022/08/28 02:05:34;;;;;;;7.90;2.40;;;16.00;99.90;;;;;;3058107;19;20014;-73
2022/08/28 02:06:36;;;;;;;14.30;2.38;;;16.00;99.90;;;;;;3058164;19;20003;-74
2022/08/28 02:07:41;;;;;;;9.23;2.30;;;16.10;99.90;;;;;;3057942;19;20015;-73
2022/08/28 02:08:43;;;;;;;7.93;2.03;;;16.10;99.90;;;;;;3057464;19;20007;-74
2022/08/28 02:09:46;;;;;;;;;;;16.10;99.90;;;;;;3058539;19;20022;-73
2022/08/28 02:10:51;;;;;;;6.85;2.10;;;16.00;99.90;;;;;;3058039;19;20357;-74
2022/08/28 02:11:56;;;;;;;6.38;2.10;;;16.20;99.90;;;;;;3057805;19;20021;-73
2022/08/28 02:12:58;;;;;;;7.20;2.40;;;15.90;99.90;;;;;;3058187;19;20003;-73
2022/08/28 02:14:03;;;;;;;8.27;2.70;;;16.20;99.90;;;;;;3057792;19;20036;-73
2022/08/28 02:15:06;;;;;;;7.85;2.53;;;16.00;99.90;;;;;;3058063;19;20021;-74
2022/08/28 02:16:12;;;;;;;10.65;2.97;;;16.10;99.90;;;;;;3058089;19;20014;-74
2022/08/28 02:17:13;;;;;;;6.38;2.10;;;16.10;99.90;;;;;;3057553;19;20007;-73
2022/08/28 02:18:17;;;;;;;13.75;2.53;;;16.00;99.90;;;;;;3058051;19;20010;-73
2022/08/28 02:19:19;;;;;;;8.52;2.45;;;16.10;99.90;;;;;;3057708;19;20493;-73
2022/08/28 02:20:23;;;;;;;7.93;2.47;;;16.10;99.90;;;;;;3057638;19;20018;-74
2022/08/28 02:21:25;;;;;;;7.55;2.15;;;16.00;99.90;;;;;;3057886;19;20010;-73
2022/08/28 02:22:29;;;;;;;6.13;2.35;;;16.10;99.90;;;;;;3058070;19;20015;-74
2022/08/28 02:23:30;;;;;;;10.85;2.78;;;16.20;99.90;;;;;;3057673;19;20035;-73
2022/08/28 02:24:34;;;;;;;7.43;2.42;;;16.10;99.90;;;;;;3058008;19;20107;-74
2022/08/28 02:25:35;;;;;;;14.10;2.53;;;16.10;99.90;;;;;;3060216;19;20498;-74
2022/08/28 02:26:42;;;;;;;6.63;2.47;;;15.90;99.90;;;;;;3060948;19;20490;-73
2022/08/28 02:27:44;;;;;;;8.23;2.50;;;16.10;99.90;;;;;;3059751;19;20015;-74
2022/08/28 02:28:48;;;;;;;9.07;2.90;;;16.10;99.90;;;;;;3060297;19;20014;-73
2022/08/28 02:29:50;;;;;;;10.73;2.42;;;17.10;99.90;;;;;;3060952;19;20358;-74
2022/08/28 02:30:54;;;;;;;8.88;2.30;;;16.10;99.90;;;;;;3061242;19;20006;-74
2022/08/28 02:31:55;;;;;;;10.55;2.80;;;16.00;99.90;;;;;;3060963;19;20031;-75
2022/08/28 02:32:59;;;;;;;9.70;2.55;;;15.90;99.90;;;;;;3060890;19;20484;-74
2022/08/28 02:34:01;;;;;;;9.48;2.38;;;16.00;99.90;;;;;;3060807;19;20010;-73
2022/08/28 02:35:06;;;;;;;6.70;2.42;;;15.90;99.90;;;;;;3060831;19;20482;-73
2022/08/28 02:36:08;;;;;;;11.15;3.08;;;16.10;99.90;;;;;;3060564;19;20041;-73
2022/08/28 02:37:13;;;;;;;7.00;2.40;;;15.90;99.90;;;;;;3060917;19;19999;-73
2022/08/28 02:38:16;;;;;;;8.38;2.33;;;16.00;99.90;;;;;;3060708;19;20484;-74
2022/08/28 02:39:20;;;;;;;7.78;2.55;;;15.90;99.90;;;;;;3060892;19;20014;-74
2022/08/28 02:40:22;;;;;;;8.18;2.30;;;15.80;99.90;;;;;;3060428;19;20011;-73
2022/08/28 02:41:27;;;;;;;8.75;2.42;;;15.90;99.90;;;;;;3060728;19;20014;-73
2022/08/28 02:42:31;;;;;;;11.70;2.83;;;15.90;99.90;;;;;;3060732;19;20010;-74
2022/08/28 02:43:35;;;;;;;8.75;2.38;;;15.90;99.90;;;;;;3060927;19;20043;-75
2022/08/28 02:44:36;;;;;;;10.48;2.45;;;15.70;99.90;;;;;;3060500;19;20018;-74
2022/08/28 02:45:41;;;;;;;6.57;2.53;;;15.80;99.90;;;;;;3060775;19;20376;-74
2022/08/28 02:46:42;;;;;;;8.95;2.88;;;15.90;99.90;;;;;;3060479;19;20006;-74
2022/08/28 02:47:48;;;;;;;11.25;2.42;;;15.80;99.90;;;;;;3060723;19;20010;-73
2022/08/28 02:48:49;;;;;;;9.73;2.67;;;15.90;99.90;;;;;;3059871;19;20022;-73
2022/08/28 02:49:53;;;;;;;11.10;2.88;;;15.80;99.90;;;;;;3060280;19;20024;-73
2022/08/28 02:50:57;;;;;;;6.75;2.20;;;15.90;99.90;;;;;;3060698;19;20011;-73
2022/08/28 02:52:01;;;;;;;8.90;2.78;;;15.70;99.90;;;;;;3060770;19;20013;-73
2022/08/28 02:53:03;;;;;;;7.90;2.60;;;15.80;99.90;;;;;;3060503;19;20374;-74
2022/08/28 02:54:07;;;;;;;8.27;2.75;;;15.80;99.90;;;;;;3060516;19;20036;-73
2022/08/28 02:55:10;;;;;;;8.98;2.30;;;15.90;99.90;;;;;;3060431;19;20017;-74
2022/08/28 02:56:14;;;;;;;10.25;2.70;;;16.00;99.90;;;;;;3060754;19;20370;-74
2022/08/28 02:57:15;;;;;;;14.80;2.60;;;15.80;99.90;;;;;;3060315;19;20020;-74
2022/08/28 02:58:22;;;;;;;8.85;2.55;;;15.90;99.90;;;;;;3060683;19;20003;-73
2022/08/28 02:59:24;;;;;;;8.63;3.03;;;16.00;99.90;;;;;;3060483;19;20007;-74
2022/08/28 03:00:28;;;;;;;9.73;2.83;;;16.00;99.90;;;;;;3060505;19;20010;-73
2022/08/28 03:01:30;;;;;;;9.07;2.50;;;15.80;99.90;;;;;;3060492;19;20014;-74
2022/08/28 03:02:34;;;;;;;;;;;15.80;99.90;;;;;;3061151;19;20014;-73
2022/08/28 03:03:39;;;;;;;7.78;2.28;;;15.70;99.90;;;;;;3060328;19;19915;-73
2022/08/28 03:04:40;;;;;;;9.32;2.20;;;15.80;99.90;;;;;;3060792;19;19995;-74
2022/08/28 03:05:44;;;;;;;9.18;2.78;;;15.70;99.90;;;;;;3060313;19;20070;-74
2022/08/28 03:06:46;;;;;;;7.18;2.38;;;15.70;99.90;;;;;;3060353;19;20015;-73
2022/08/28 03:07:52;;;;;;;7.07;2.35;;;17.60;99.90;;;;;;3060295;19;20022;-73
2022/08/28 03:08:53;;;;;;;6.55;2.30;;;15.80;99.90;;;;;;3059746;19;20003;-73
2022/08/28 03:09:57;;;;;;;7.50;2.88;;;15.70;99.90;;;;;;3060210;19;20023;-74
2022/08/28 03:10:59;;;;;;;7.97;2.28;;;16.80;99.90;;;;;;3060539;19;19998;-74
2022/08/28 03:12:03;;;;;;;5.65;2.30;;;15.70;99.90;;;;;;3060140;19;20571;-74
2022/08/28 03:13:05;;;;;;;8.82;2.78;;;15.90;99.90;;;;;;3060537;19;20003;-74
2022/08/28 03:14:12;;;;;;;;;;;15.60;99.90;;;;;;3060820;19;20011;-74
2022/08/28 03:15:13;;;;;;;8.45;2.50;;;15.60;99.90;;;;;;3060283;19;19943;-73
2022/08/28 03:16:17;;;;;;;8.02;2.50;;;15.60;99.90;;;;;;3060130;19;20480;-74
2022/08/28 03:17:20;;;;;;;8.38;2.60;;;15.80;99.90;;;;;;3060014;19;20030;-74
2022/08/28 03:18:25;;;;;;;9.98;2.60;;;15.60;99.90;;;;;;3060129;19;20010;-74
2022/08/28 03:19:27;;;;;;;8.63;2.50;;;15.80;99.90;;;;;;3059809;19;20022;-74
2022/08/28 03:20:31;;;;;;;8.82;2.67;;;15.80;99.90;;;;;;3060034;19;20014;-73
2022/08/28 03:21:32;;;;;;;10.50;3.75;;;15.70;99.90;;;;;;3060202;19;20010;-74
2022/08/28 03:23:52;;;;;;;9.43;2.70;;;15.90;99.90;;;;;;3060086;19;20002;-73
2022/08/28 03:24:54;;;;;;;7.85;2.58;;;15.80;99.90;;;;;;3060076;19;20018;-73
2022/08/28 03:26:01;;;;;;;5.88;3.17;;;15.70;99.90;;;;;;3060327;19;20007;-74
2022/08/28 03:27:03;;;;;;;8.88;3.28;;;15.70;99.90;;;;;;3059858;19;20346;-73
2022/08/28 03:28:07;;;;;;;9.13;3.08;;;15.80;99.90;;;;;;3059907;19;20017;-73
2022/08/28 03:29:11;;;;;;;11.60;3.65;;;15.80;99.90;;;;;;3059293;19;20027;-74
2022/08/28 03:30:16;;;;;;;8.75;2.40;;;15.90;99.90;;;;;;3060022;19;20499;-74
2022/08/28 03:31:24;;;;;;;9.10;3.03;;;15.70;99.90;;;;;;3060344;19;20494;-74
2022/08/28 03:32:25;;;;;;;9.93;4.10;;;15.80;99.90;;;;;;3059984;19;20006;-73
2022/08/28 03:33:30;;;;;;;9.95;5.00;;;15.70;99.90;;;;;;3060295;19;20010;-74
2022/08/28 03:34:32;;;;;;;11.02;5.60;;;15.70;99.90;;;;;;3060127;19;20071;-74
2022/08/28 03:35:36;;;;;;;7.90;4.50;;;15.50;99.90;;;;;;3060150;19;20483;-73
2022/08/28 03:36:40;;;;;;;8.43;3.40;;;15.70;99.90;;;;;;3057591;19;20011;-74
2022/08/28 03:37:41;;;;;;;11.15;3.85;;;15.70;99.90;;;;;;3059872;19;20017;-74
2022/08/28 03:38:45;;;;;;;11.60;3.80;;;15.70;99.90;;;;;;3060044;19;20010;-74
2022/08/28 03:39:46;;;;;;;7.50;3.38;;;15.70;99.90;;;;;;3059883;19;20009;-74
2022/08/28 03:40:50;;;;;;;11.70;3.75;;;15.90;99.90;;;;;;3061116;19;20014;-74
2022/08/28 03:41:52;;;;;;;13.00;4.00;;;15.60;99.90;;;;;;3059886;19;20031;-73
2022/08/28 03:42:56;;;;;;;8.70;3.80;;;15.80;99.90;;;;;;3060100;19;20010;-74
2022/08/28 03:43:59;;;;;;;8.85;3.28;;;15.70;99.90;;;;;;3060031;19;20348;-72
2022/08/28 03:45:06;;;;;;;7.28;2.70;;;15.70;99.90;;;;;;3060032;19;20481;-74
2022/08/28 03:46:13;;;;;;;6.68;2.50;;;15.60;99.90;;;;;;3060135;19;20018;-73
2022/08/28 03:47:17;;;;;;;7.25;2.55;;;15.50;99.90;;;;;;3059838;19;20022;-74
2022/08/28 03:48:22;;;;;;;7.57;2.40;;;15.60;99.90;;;;;;3059796;19;20014;-73
2022/08/28 03:49:24;;;;;;;8.93;2.60;;;15.70;99.90;;;;;;3058557;19;20031;-74
2022/08/28 03:50:28;;;;;;;11.43;3.28;;;15.60;99.90;;;;;;3060074;19;20006;-74
2022/08/28 03:51:31;;;;;;;6.28;2.30;;;15.50;99.90;;;;;;3058665;19;20479;-74
2022/08/28 03:52:35;;;;;;;7.78;2.78;;;15.70;99.90;;;;;;3059101;19;20006;-74
2022/08/28 03:53:37;;;;;;;9.35;2.80;;;15.40;99.90;;;;;;3059634;19;20129;-73
2022/08/28 03:54:41;;;;;;;10.13;2.40;;;15.50;99.90;;;;;;3059775;19;20036;-73
2022/08/28 03:55:42;;;;;;;6.35;2.67;;;15.60;99.90;;;;;;3059582;19;20027;-73
2022/08/28 03:56:46;;;;;;;8.10;2.38;;;15.50;99.90;;;;;;3059715;19;20379;-73
2022/08/28 03:57:47;;;;;;;7.32;2.33;;;15.60;99.90;;;;;;3059601;19;20011;-74
2022/08/28 03:58:56;;;;;;;9.48;2.92;;;15.70;99.90;;;;;;3059875;19;20321;-74
2022/08/28 03:59:57;;;;;;;7.57;2.83;;;15.50;99.90;;;;;;3059401;19;20431;-73
2022/08/28 04:01:04;;;;;;;10.45;2.88;;;15.50;99.90;;;;;;3059869;19;20013;-74
2022/08/28 04:02:05;;;;;;;7.53;2.80;;;16.10;99.90;;;;;;3059515;19;20010;-73
2022/08/28 04:03:11;;;;;;;7.35;2.50;;;15.60;99.90;;;;;;3059751;19;20345;-73
2022/08/28 04:04:12;;;;;;;7.20;3.30;;;15.50;99.90;;;;;;3059442;19;20508;-74
2022/08/28 04:05:16;;;;;;;8.57;2.85;;;15.40;99.90;;;;;;3059591;19;20018;-74
2022/08/28 04:06:18;;;;;;;8.40;2.83;;;15.70;99.90;;;;;;3059545;19;20221;-73
2022/08/28 04:07:22;;;;;;;9.93;2.90;;;15.50;99.90;;;;;;3059541;19;20003;-73
2022/08/28 04:08:24;;;;;;;7.28;2.60;;;15.50;99.90;;;;;;3059563;19;20368;-74
2022/08/28 04:09:27;;;;;;;;;;;15.50;99.90;;;;;;3059541;19;20011;-74
2022/08/28 04:10:30;;;;;;;8.80;3.00;;;15.40;99.90;;;;;;3059217;19;20252;-73
2022/08/28 04:11:40;;;;;;;6.72;2.90;;;15.30;99.90;;;;;;3059803;19;20464;-74
2022/08/28 04:12:42;;;;;;;8.30;2.90;;;15.60;99.90;;;;;;3059305;19;20027;-74
2022/08/28 04:13:46;;;;;;;9.43;2.78;;;15.50;99.90;;;;;;3059492;19;20003;-73
2022/08/28 04:14:48;;;;;;;9.85;2.97;;;15.50;99.90;;;;;;3059393;19;20010;-74
2022/08/28 04:15:57;;;;;;;;;;;15.50;99.90;;;;;;3060251;19;20031;-74
2022/08/28 04:17:01;;;;;;;9.60;2.78;;;15.40;99.90;;;;;;3059513;19;19918;-73
2022/08/28 04:18:06;;;;;;;6.20;2.38;;;16.40;99.90;;;;;;3058741;19;20078;-74
2022/08/28 04:19:07;;;;;;;6.47;2.30;;;15.40;99.90;;;;;;3059500;19;20028;-74
2022/08/28 04:20:12;;;;;;;10.93;2.72;;;15.40;99.90;;;;;;3058922;19;20011;-74
2022/08/28 04:21:16;;;;;;;5.35;2.08;;;15.60;99.90;;;;;;3059306;19;20013;-74
2022/08/28 04:22:20;;;;;;;6.35;2.42;;;15.40;99.90;;;;;;3059251;19;20359;-74
2022/08/28 04:23:22;;;;;;;5.88;2.40;;;15.50;99.90;;;;;;3059529;19;20078;-73
2022/08/28 04:24:26;;;;;;;9.88;2.58;;;15.40;99.90;;;;;;3058460;19;20021;-73
2022/08/28 04:25:27;;;;;;;10.45;2.33;;;15.40;99.90;;;;;;3058441;19;20035;-74
2022/08/28 04:26:35;;;;;;;6.00;2.47;;;15.40;99.90;;;;;;3059325;19;20011;-73
2022/08/28 04:27:36;;;;;;;8.50;2.60;;;16.80;99.90;;;;;;3058781;19;20007;-74
2022/08/28 04:28:40;;;;;;;5.68;2.45;;;16.50;99.90;;;;;;3059215;19;20015;-73
2022/08/28 04:29:41;;;;;;;6.15;2.38;;;15.30;99.90;;;;;;3058542;19;20014;-74
2022/08/28 04:30:46;;;;;;;8.70;3.08;;;15.40;99.90;;;;;;3059426;19;20043;-74
2022/08/28 04:31:47;;;;;;;6.00;2.35;;;15.30;99.90;;;;;;3059169;19;20081;-74
2022/08/28 04:32:53;;;;;;;7.03;2.63;;;15.30;99.90;;;;;;3059236;19;20013;-74
2022/08/28 04:33:55;;;;;;;8.18;2.42;;;15.20;99.90;;;;;;3058995;19;20011;-74
2022/08/28 04:34:59;;;;;;;8.32;3.03;;;15.40;99.90;;;;;;3058996;19;20036;-73
2022/08/28 04:36:01;;;;;;;8.75;2.67;;;15.40;99.90;;;;;;3059217;19;20006;-74
2022/08/28 04:37:06;;;;;;;7.32;2.40;;;15.40;99.90;;;;;;3058908;19;20003;-74
2022/08/28 04:38:07;;;;;;;8.35;2.80;;;15.40;99.90;;;;;;3059021;19;20027;-73
2022/08/28 04:39:11;;;;;;;10.40;3.22;;;15.50;99.90;;;;;;3059001;19;20006;-74
2022/08/28 04:40:14;;;;;;;5.07;2.38;;;15.50;99.90;;;;;;3060266;19;20019;-74
2022/08/28 04:41:19;;;;;;;7.07;2.42;;;15.40;99.90;;;;;;3058966;19;20051;-74
2022/08/28 04:42:21;;;;;;;6.40;2.28;;;15.50;99.90;;;;;;3059278;19;20006;-74
2022/08/28 04:43:24;;;;;;;10.55;2.90;;;15.50;99.90;;;;;;3058966;19;20011;-74
2022/08/28 04:44:26;;;;;;;9.35;3.15;;;15.50;99.90;;;;;;3059204;19;20011;-73
2022/08/28 04:45:30;;;;;;;9.70;3.67;;;15.50;99.90;;;;;;3058992;19;20018;-74
2022/08/28 04:46:32;;;;;;;6.68;3.10;;;15.40;99.90;;;;;;3059206;19;20005;-75
2022/08/28 04:47:37;;;;;;;;;;;15.50;99.90;;;;;;3059095;19;20014;-73
2022/08/28 04:48:41;;;;;;;9.57;3.30;;;15.60;99.90;;;;;;3058794;19;19939;-74
2022/08/28 04:49:45;;;;;;;9.07;3.00;;;15.40;99.90;;;;;;3058067;19;20302;-74
2022/08/28 04:50:48;;;;;;;9.13;3.40;;;15.50;99.90;;;;;;3059004;19;20021;-74
2022/08/28 04:51:52;;;;;;;7.72;3.58;;;16.30;99.90;;;;;;3059123;19;20500;-74
2022/08/28 04:52:53;;;;;;;9.13;2.92;;;15.50;99.90;;;;;;3059105;19;20038;-74
2022/08/28 04:53:57;;;;;;;9.25;2.42;;;15.30;99.90;;;;;;3058855;19;20007;-74
2022/08/28 04:54:59;;;;;;;8.93;2.83;;;15.40;99.90;;;;;;3059014;19;20112;-74
2022/08/28 04:56:06;;;;;;;6.55;2.40;;;15.50;99.90;;;;;;3058995;19;20044;-74
2022/08/28 04:57:07;;;;;;;9.25;2.22;;;15.50;99.90;;;;;;3058825;19;20006;-74
2022/08/28 04:58:11;;;;;;;7.20;2.30;;;15.50;99.90;;;;;;3058774;19;20011;-74
2022/08/28 04:59:13;;;;;;;8.80;2.72;;;16.30;99.90;;;;;;3058721;19;20011;-74
2022/08/28 05:00:17;;;;;;;9.35;2.90;;;15.40;99.90;;;;;;3058637;19;20500;-74
2022/08/28 05:01:22;;;;;;;8.80;2.90;;;15.50;99.90;;;;;;3058849;19;20472;-74
2022/08/28 05:02:26;;;;;;;8.30;3.20;;;15.30;99.90;;;;;;3058602;19;20017;-74
2022/08/28 05:03:28;;;;;;;9.90;3.25;;;15.40;99.90;;;;;;3058772;19;20015;-74
2022/08/28 05:04:34;;;;;;;7.82;3.33;;;15.50;99.90;;;;;;3058524;19;20497;-74
2022/08/28 05:05:41;;;;;;;9.60;2.95;;;16.00;99.90;;;;;;3058703;19;20082;-74
2022/08/28 05:06:45;;;;;;;6.47;2.65;;;15.60;99.90;;;;;;3058645;19;20010;-73
2022/08/28 05:07:48;;;;;;;7.75;2.60;;;15.40;99.90;;;;;;3058905;19;20022;-73
2022/08/28 05:08:50;;;;;;;8.93;2.58;;;15.40;99.90;;;;;;3058578;19;20480;-74
2022/08/28 05:09:55;;;;;;;8.35;2.10;;;15.40;99.90;;;;;;3058356;19;19999;-73
2022/08/28 05:10:56;;;;;;;5.72;2.20;;;15.30;99.90;;;;;;3058354;19;20014;-74
2022/08/28 05:12:04;;;;;;;5.35;2.30;;;15.60;99.90;;;;;;3058800;19;20013;-74
2022/08/28 05:13:07;;;;;;;5.70;2.30;;;15.50;99.90;;;;;;3058462;19;20074;-74
2022/08/28 05:14:13;;;;;;;6.18;2.00;;;15.50;99.90;;;;;;3058869;19;20003;-74
2022/08/28 05:15:15;;;;;;;9.35;2.22;;;15.40;99.90;;;;;;3058810;19;20019;-75
2022/08/28 05:16:19;;;;;;;6.78;2.10;;;15.40;99.90;;;;;;3058884;19;20003;-74
2022/08/28 05:17:23;;;;;;;6.78;1.88;;;15.40;99.90;;;;;;3058277;19;20007;-74
2022/08/28 05:18:24;;;;;;;7.20;1.98;;;15.40;99.90;;;;;;3058897;19;20367;-75
2022/08/28 05:19:30;;;;;;;4.90;2.17;;;15.60;99.90;;;;;;3058222;19;20006;-74
2022/08/28 05:20:36;;;;;;;9.73;2.35;;;15.60;99.90;;;;;;3058584;19;20378;-73
2022/08/28 05:21:41;;;;;;;8.55;2.55;;;15.30;99.90;;;;;;3058775;19;20465;-74
2022/08/28 05:22:42;;;;;;;7.03;2.15;;;15.60;99.90;;;;;;3058623;19;20002;-74
2022/08/28 05:23:46;;;;;;;5.07;2.45;;;15.50;99.90;;;;;;3058706;19;20002;-74
2022/08/28 05:24:48;;;;;;;6.72;2.28;;;15.50;99.90;;;;;;3058437;19;20045;-73
2022/08/28 05:25:52;;;;;;;5.68;2.92;;;15.60;99.90;;;;;;3058699;19;20049;-74
2022/08/28 05:26:53;;;;;;;8.48;2.45;;;15.50;99.90;;;;;;3058318;19;20025;-74
2022/08/28 05:27:57;;;;;;;10.77;2.72;;;15.50;99.90;;;;;;3058664;19;19999;-74
2022/08/28 05:28:59;;;;;;;12.68;2.90;;;15.60;99.90;;;;;;3058408;19;20010;-73
2022/08/28 05:30:02;;;;;;;;;;;15.60;99.90;;;;;;3057520;19;20365;-73
2022/08/28 05:31:08;;;;;;;6.15;2.33;;;15.50;99.90;;;;;;3057569;19;19934;-74
2022/08/28 05:32:12;;;;;;;9.00;2.50;;;15.50;99.90;;;;;;3058540;19;19999;-74
2022/08/28 05:33:14;;;;;;;7.38;2.25;;;15.60;99.90;;;;;;3058310;19;20464;-74
2022/08/28 05:34:19;;;;;;;10.50;2.85;;;15.70;99.90;;;;;;3058568;19;20032;-74
2022/08/28 05:35:20;;;;;;;6.45;2.33;;;15.50;99.90;;;;;;3058582;19;20002;-74
2022/08/28 05:36:28;;;;;;;7.47;1.65;;;15.50;99.90;;;;;;3058468;19;20491;-74